Aeroporto :
LOGIN :

Iscrizione | Disclaimer

   EN    FR    IT 

 










Sommario :    VFR   VFR Marginale   IFR   IFR Intensivo   IFR Molto Intensivo
Visibilità : 
Base nubi : 
>= 8 km
>= 3000ft
5 / 8 km
1000 / 3000 ft
1500m / 5 km
500 / 1000 ft
800 / 1500m
200 / 500 ft
< 800m
< 200 ft
Simboli :   Temporali  Nebbia  Neve Forte  Precipitazioni Forti  Vento > 20 kt
SIGMETs :   Varie  Temporali  Ghiacco  Turbolenza  Onda orograficha  Ceneri Vulcaniche






- Altitudine del aeroporto : 685 ft
- Codice IATA : VKO


UUWW - Vnukovo International

ULTIMO METAR :
  • 260400Z 25002MPS 9999 OVC040 M01/M05 Q1019 R24/190050 NOSIG

METARs OBSOLETI :
  • 260330Z 26002MPS 9999 OVC039 M00/M04 Q1019 R24/190050 NOSIG
  • 260300Z 28002MPS 9999 OVC040 M00/M04 Q1019 R24/190050 NOSIG
  • 260230Z 28003MPS 9999 OVC040 M00/M04 Q1019 R24/190050 NOSIG
  • 260200Z 27003MPS 9999 OVC041 M00/M04 Q1019 R24/190050 NOSIG
  • 260130Z 27002MPS 9999 OVC041 M00/M04 Q1019 R24/190050 NOSIG

TAF TAF UUWW
Valido dal 26 a 03 ore il 27 a 03 ore UTC


260157Z 2603/2703 19005MPS 6000 FEW004 BKN016 TX01/2623Z TNM02/2606Z
TEMPO 2603/2609 -SN OVC004
PROB40
TEMPO 2603/2606 0300 FZFG OVC001
TEMPO 2609/2615 1500 SN -FZDZ OVC003
BECMG 2615/2617 OVC004
TEMPO 2617/2703 25005G12MPS 2100 -SNRA BR OVC002



MetMap, La meteo Aeronautica in un colpo d'occhio ! - Copyright ORBIFLY Dicembre 2007 - Disclaimer

ORBIFLY MET'MAP TEAM :

Programmazione e sviluppo : Alexandra Zaïnal
Concezione : Baudouin d'Aumeries
Aiuto per la programmazione : Marc-Olivier Méhu
Supporto tecnico e logistico : Manuel Goepfert
Aiuto per la traduzione : Arnaldo La Scala

Contatto : metmap@orbifly.com




FONTI E CREDITI :

   NOAA